Time;durP1;ratioP1;P1;durP2;ratioP2;P2;SDS_P1;SDS_P2;PMS_P1;PMS_P2;Temp;Humidity;BMP_temperature;BMP_pressure;BME280_temperature;BME280_humidity;BME280_pressure;Samples;Min_cycle;Max_cycle;Signal;HPM_P1;HPM_P2
2023/01/27 00:02:18;;;;;;;13.87;8.00;;;;;;;;;;5094191;28;20215;-31
2023/01/27 00:04:45;;;;;;;11.83;7.83;;;;;;;;;;5094952;28;20315;-27
2023/01/27 00:07:14;;;;;;;13.50;7.90;;;;;;;;;;5094317;28;20220;-30
2023/01/27 00:09:41;;;;;;;11.20;7.37;;;;;;;;;;5093612;28;20204;-30
2023/01/27 00:14:57;;;;;;;12.53;8.30;;;;;;;;;;5093114;28;20329;-31
2023/01/27 00:17:24;;;;;;;13.33;7.67;;;;;;;;;;5093898;28;20582;-33
2023/01/27 00:19:51;;;;;;;13.33;7.90;;;;;;;;;;5094155;28;20205;-31
2023/01/27 00:25:05;;;;;;;11.87;7.63;;;;;;;;;;5093532;28;20215;-32
2023/01/27 00:27:32;;;;;;;12.33;7.87;;;;;;;;;;5094025;28;20228;-32
2023/01/27 00:29:59;;;;;;;12.63;7.13;;;;;;;;;;5092431;28;20356;-33
2023/01/27 00:35:11;;;;;;;11.97;7.10;;;;;;;;;;5094155;28;20218;-29
2023/01/27 00:37:40;;;;;;;13.13;7.73;;;;;;;;;;5093288;28;20539;-33
2023/01/27 00:40:07;;;;;;;11.83;7.33;;;;;;;;;;5093207;28;20207;-29
2023/01/27 00:42:34;;;;;;;14.10;7.80;;;;;;;;;;5093117;28;20274;-29
2023/01/27 00:47:48;;;;;;;11.43;7.07;;;;;;;;;;5093103;28;20311;-31
2023/01/27 00:50:16;;;;;;;11.00;7.87;;;;;;;;;;5092737;28;20299;-28
2023/01/27 00:52:45;;;;;;;11.47;7.23;;;;;;;;;;5091808;28;20283;-32
2023/01/27 00:55:14;;;;;;;13.13;7.60;;;;;;;;;;5092859;28;20205;-33
2023/01/27 01:00:45;;;;;;;13.03;8.50;;;;;;;;;;5091289;28;20160;-31
2023/01/27 01:03:12;;;;;;;12.73;8.37;;;;;;;;;;5092816;28;20244;-32
2023/01/27 01:05:39;;;;;;;13.87;8.17;;;;;;;;;;5093405;28;20220;-29
2023/01/27 01:08:08;;;;;;;10.70;7.53;;;;;;;;;;5093065;28;20228;-29
2023/01/27 01:10:35;;;;;;;11.03;7.10;;;;;;;;;;5091600;28;20208;-34
2023/01/27 01:13:02;;;;;;;15.23;8.33;;;;;;;;;;5092562;28;20225;-32
2023/01/27 01:15:29;;;;;;;14.33;8.53;;;;;;;;;;5091435;28;20204;-29
2023/01/27 01:17:56;;;;;;;11.00;7.80;;;;;;;;;;5092698;28;20284;-29
2023/01/27 01:20:23;;;;;;;13.53;8.97;;;;;;;;;;5092503;28;20215;-31
2023/01/27 01:22:51;;;;;;;14.83;9.47;;;;;;;;;;5091948;28;20224;-29
2023/01/27 01:25:19;;;;;;;12.70;8.47;;;;;;;;;;5090995;28;20353;-33
2023/01/27 01:27:46;;;;;;;15.10;9.20;;;;;;;;;;5092303;28;20227;-31
2023/01/27 01:30:13;;;;;;;11.63;7.43;;;;;;;;;;5090516;28;20287;-28
2023/01/27 01:32:40;;;;;;;13.83;8.43;;;;;;;;;;5091847;28;20283;-30
2023/01/27 01:35:08;;;;;;;13.13;7.30;;;;;;;;;;5092247;28;20671;-30
2023/01/27 01:37:35;;;;;;;13.60;7.90;;;;;;;;;;5092413;28;20197;-30
2023/01/27 01:40:02;;;;;;;17.87;9.87;;;;;;;;;;5090616;28;20208;-33
2023/01/27 01:42:44;;;;;;;14.33;9.47;;;;;;;;;;5092154;28;20205;-30
2023/01/27 01:45:45;;;;;;;13.70;9.13;;;;;;;;;;5091020;28;20192;-31
2023/01/27 01:48:14;;;;;;;14.13;8.67;;;;;;;;;;5092028;28;20229;-27
2023/01/27 01:50:43;;;;;;;14.77;9.00;;;;;;;;;;5091728;28;20216;-30
2023/01/27 01:53:11;;;;;;;16.33;9.17;;;;;;;;;;5090399;28;20229;-31
2023/01/27 01:55:40;;;;;;;11.33;7.50;;;;;;;;;;5091821;28;20206;-29
2023/01/27 01:58:08;;;;;;;14.10;8.70;;;;;;;;;;5091871;28;20208;-29
2023/01/27 02:00:35;;;;;;;13.43;8.80;;;;;;;;;;5090097;28;20211;-31
2023/01/27 02:03:04;;;;;;;15.30;8.97;;;;;;;;;;5090164;28;20225;-28
2023/01/27 02:05:34;;;;;;;14.53;9.07;;;;;;;;;;5091573;28;20677;-29
2023/01/27 02:08:03;;;;;;;15.40;9.53;;;;;;;;;;5090358;28;20682;-29
2023/01/27 02:10:30;;;;;;;15.73;8.90;;;;;;;;;;5091207;28;20565;-30
2023/01/27 02:12:58;;;;;;;14.53;9.17;;;;;;;;;;5091121;28;20221;-29
2023/01/27 02:15:25;;;;;;;15.73;8.93;;;;;;;;;;5089839;28;20681;-31
2023/01/27 02:17:52;;;;;;;16.23;9.97;;;;;;;;;;5090995;28;20674;-29
2023/01/27 02:20:27;;;;;;;15.73;9.83;;;;;;;;;;5091222;28;20201;-31
2023/01/27 02:22:57;;;;;;;14.33;7.80;;;;;;;;;;5091526;28;20234;-31
2023/01/27 02:25:27;;;;;;;18.13;10.80;;;;;;;;;;5089837;28;20586;-29
2023/01/27 02:27:56;;;;;;;19.57;12.30;;;;;;;;;;5090914;28;20209;-30
2023/01/27 02:30:23;;;;;;;11.83;8.27;;;;;;;;;;5089753;28;20201;-32
2023/01/27 02:32:50;;;;;;;12.70;8.17;;;;;;;;;;5090908;28;20196;-30
2023/01/27 02:35:20;;;;;;;17.97;9.77;;;;;;;;;;5091047;28;20196;-30
2023/01/27 02:37:49;;;;;;;16.23;8.93;;;;;;;;;;5091523;28;20193;-29
2023/01/27 02:40:17;;;;;;;17.07;9.23;;;;;;;;;;5090392;28;20204;-30
2023/01/27 02:42:44;;;;;;;15.70;9.30;;;;;;;;;;5091236;28;20218;-31
2023/01/27 02:45:12;;;;;;;13.30;8.10;;;;;;;;;;5090016;28;20277;-31
2023/01/27 02:47:39;;;;;;;18.23;9.67;;;;;;;;;;5091202;28;20208;-31
2023/01/27 02:50:07;;;;;;;17.43;10.07;;;;;;;;;;5091014;28;20205;-30
2023/01/27 02:52:34;;;;;;;16.70;9.00;;;;;;;;;;5090998;28;20210;-31
2023/01/27 02:55:01;;;;;;;18.43;9.43;;;;;;;;;;5090124;28;20208;-30
2023/01/27 02:57:28;;;;;;;15.73;9.00;;;;;;;;;;5091593;28;20363;-31
2023/01/27 02:59:55;;;;;;;15.30;8.80;;;;;;;;;;5090298;28;20197;-32
2023/01/27 03:02:29;;;;;;;13.47;7.53;;;;;;;;;;5091020;28;20201;-30
2023/01/27 03:04:56;;;;;;;20.87;10.03;;;;;;;;;;5091156;28;20200;-30
2023/01/27 03:07:23;;;;;;;18.87;11.33;;;;;;;;;;5091283;28;20659;-31
2023/01/27 03:09:50;;;;;;;17.63;9.97;;;;;;;;;;5089654;28;20224;-30
2023/01/27 03:12:20;;;;;;;14.30;9.47;;;;;;;;;;5090848;28;20681;-29
2023/01/27 03:20:20;;;;;;;14.67;9.57;;;;;;;;;;5095141;28;20196;-31
2023/01/27 03:22:47;;;;;;;16.30;9.00;;;;;;;;;;5094827;28;20544;-29
2023/01/27 03:25:14;;;;;;;17.40;9.07;;;;;;;;;;5093301;28;20220;-29
2023/01/27 03:27:41;;;;;;;17.67;9.77;;;;;;;;;;5094802;28;20467;-27
2023/01/27 03:30:09;;;;;;;14.87;8.57;;;;;;;;;;5093631;28;20463;-28
2023/01/27 03:32:45;;;;;;;13.73;8.97;;;;;;;;;;5094434;28;20204;-31
2023/01/27 03:35:13;;;;;;;15.10;9.50;;;;;;;;;;5094760;28;20642;-33
2023/01/27 03:48:42;;;;;;;15.60;10.00;;;;;;;;;;5095492;28;20262;-30
2023/01/27 03:51:10;;;;;;;18.23;11.27;;;;;;;;;;5094675;28;20283;-32
2023/01/27 03:53:38;;;;;;;16.37;9.17;;;;;;;;;;5092907;28;20710;-29
2023/01/27 03:56:05;;;;;;;16.67;8.83;;;;;;;;;;5094439;28;20212;-34
2023/01/27 03:58:34;;;;;;;17.33;9.37;;;;;;;;;;5094896;28;20204;-30
2023/01/27 04:01:02;;;;;;;14.77;8.60;;;;;;;;;;5092764;28;20205;-28
2023/01/27 04:09:01;;;;;;;16.23;8.10;;;;;;;;;;5093274;28;20215;-30
2023/01/27 04:14:13;;;;;;;13.83;8.83;;;;;;;;;;5092914;28;20658;-29
2023/01/27 04:16:40;;;;;;;15.53;8.33;;;;;;;;;;5094102;28;20299;-33
2023/01/27 04:19:09;;;;;;;16.03;8.43;;;;;;;;;;5094468;28;20647;-31
2023/01/27 04:21:37;;;;;;;16.40;8.47;;;;;;;;;;5094929;28;20204;-30
2023/01/27 04:24:07;;;;;;;12.83;7.33;;;;;;;;;;5093441;28;20255;-29
2023/01/27 04:26:34;;;;;;;12.40;7.77;;;;;;;;;;5093292;28;20189;-30
2023/01/27 04:29:02;;;;;;;14.67;7.63;;;;;;;;;;5093923;28;20227;-28
2023/01/27 04:31:29;;;;;;;14.20;7.93;;;;;;;;;;5094578;28;20205;-27
2023/01/27 04:33:56;;;;;;;13.93;8.60;;;;;;;;;;5093971;28;20224;-30
2023/01/27 04:36:23;;;;;;;14.47;8.40;;;;;;;;;;5094927;28;20227;-30
2023/01/27 04:38:52;;;;;;;13.63;7.83;;;;;;;;;;5093297;28;20207;-30
2023/01/27 04:41:19;;;;;;;12.77;7.50;;;;;;;;;;5096387;28;20295;-31
2023/01/27 04:43:47;;;;;;;13.17;7.40;;;;;;;;;;5095362;28;20224;-31
2023/01/27 04:46:14;;;;;;;13.43;8.10;;;;;;;;;;5095676;28;20228;-27
2023/01/27 04:48:41;;;;;;;14.03;8.13;;;;;;;;;;5095604;28;20231;-33
2023/01/27 04:51:08;;;;;;;17.07;8.27;;;;;;;;;;5096155;28;20211;-30
2023/01/27 04:53:35;;;;;;;14.97;8.57;;;;;;;;;;5094548;28;20224;-30
2023/01/27 04:56:05;;;;;;;12.93;8.73;;;;;;;;;;5094766;28;20204;-32
2023/01/27 04:58:32;;;;;;;13.10;8.83;;;;;;;;;;5095282;28;20208;-33
2023/01/27 05:01:00;;;;;;;12.87;7.90;;;;;;;;;;5092444;28;20204;-29
2023/01/27 05:03:27;;;;;;;12.93;7.63;;;;;;;;;;5093293;28;20259;-29
2023/01/27 05:05:54;;;;;;;16.10;8.97;;;;;;;;;;5093260;28;20209;-29
2023/01/27 05:08:21;;;;;;;12.63;7.70;;;;;;;;;;5093386;28;20224;-29
2023/01/27 05:10:48;;;;;;;15.70;9.90;;;;;;;;;;5091795;28;20209;-29
2023/01/27 05:13:17;;;;;;;15.77;9.23;;;;;;;;;;5093022;28;20224;-31
2023/01/27 05:15:44;;;;;;;12.97;8.00;;;;;;;;;;5093007;28;20208;-31
2023/01/27 05:18:11;;;;;;;16.67;9.07;;;;;;;;;;5094695;28;20671;-33
2023/01/27 05:20:38;;;;;;;11.47;8.63;;;;;;;;;;5095053;28;20204;-30
2023/01/27 05:25:49;;;;;;;14.80;7.73;;;;;;;;;;5084967;28;20208;-33
2023/01/27 05:28:18;;;;;;;16.53;9.00;;;;;;;;;;5095344;28;20200;-30
2023/01/27 05:30:45;;;;;;;12.40;7.93;;;;;;;;;;5094473;28;20212;-29
2023/01/27 05:33:12;;;;;;;15.40;9.43;;;;;;;;;;5093872;28;20225;-32
2023/01/27 05:35:39;;;;;;;13.00;8.03;;;;;;;;;;5093826;28;20209;-29
2023/01/27 05:38:06;;;;;;;15.30;7.83;;;;;;;;;;5093215;28;20208;-31
2023/01/27 05:40:33;;;;;;;14.60;8.00;;;;;;;;;;5093149;28;20239;-30
2023/01/27 05:43:01;;;;;;;11.97;7.57;;;;;;;;;;5092820;28;20307;-32
2023/01/27 05:45:29;;;;;;;13.10;7.73;;;;;;;;;;5092263;28;20215;-29
2023/01/27 05:47:56;;;;;;;14.37;7.90;;;;;;;;;;5092703;28;20208;-30
2023/01/27 05:50:23;;;;;;;14.87;7.70;;;;;;;;;;5092904;28;20230;-33
2023/01/27 05:52:50;;;;;;;13.60;7.37;;;;;;;;;;5091831;28;20242;-33
2023/01/27 05:55:18;;;;;;;11.80;6.80;;;;;;;;;;5092682;28;20215;-31
2023/01/27 05:57:45;;;;;;;9.63;6.47;;;;;;;;;;5092798;28;20215;-30
2023/01/27 06:00:12;;;;;;;12.50;6.97;;;;;;;;;;5091845;28;20197;-34
2023/01/27 06:02:41;;;;;;;9.27;5.47;;;;;;;;;;5092297;28;20215;-30
2023/01/27 06:05:08;;;;;;;11.63;6.30;;;;;;;;;;5093038;28;20196;-30
2023/01/27 06:07:35;;;;;;;10.90;6.03;;;;;;;;;;5091588;28;20287;-32
2023/01/27 06:10:02;;;;;;;13.73;6.87;;;;;;;;;;5091863;28;20231;-29
2023/01/27 06:12:29;;;;;;;11.33;6.80;;;;;;;;;;5092484;28;20211;-30
2023/01/27 06:14:59;;;;;;;10.33;6.77;;;;;;;;;;5091455;28;20208;-29
2023/01/27 06:17:26;;;;;;;10.43;6.30;;;;;;;;;;5092288;28;20205;-30
2023/01/27 06:19:54;;;;;;;9.43;5.53;;;;;;;;;;5092515;28;20258;-26
2023/01/27 06:22:22;;;;;;;8.87;5.30;;;;;;;;;;5092162;28;20209;-32
2023/01/27 06:24:49;;;;;;;10.53;5.23;;;;;;;;;;5090470;28;20243;-30
2023/01/27 06:27:16;;;;;;;9.90;6.23;;;;;;;;;;5092499;28;20211;-31
2023/01/27 06:29:43;;;;;;;23.57;15.53;;;;;;;;;;5090526;28;20239;-31
2023/01/27 06:32:10;;;;;;;13.00;8.30;;;;;;;;;;5091860;28;20204;-28
2023/01/27 06:34:37;;;;;;;9.50;6.17;;;;;;;;;;5091796;28;20216;-33
2023/01/27 06:37:06;;;;;;;11.83;7.53;;;;;;;;;;5092091;28;20207;-32
2023/01/27 06:39:33;;;;;;;9.27;5.97;;;;;;;;;;5091406;28;20197;-29
2023/01/27 06:42:00;;;;;;;10.43;6.23;;;;;;;;;;5091783;28;20204;-30
2023/01/27 06:44:27;;;;;;;9.67;5.90;;;;;;;;;;5090330;28;20238;-31
2023/01/27 06:46:54;;;;;;;10.97;6.17;;;;;;;;;;5091901;28;20232;-32
2023/01/27 06:49:21;;;;;;;13.03;6.53;;;;;;;;;;5091282;28;20223;-30
2023/01/27 06:51:48;;;;;;;11.50;4.77;;;;;;;;;;5092666;28;20211;-31
2023/01/27 06:54:17;;;;;;;9.40;6.07;;;;;;;;;;5091043;28;20237;-30
2023/01/27 06:56:44;;;;;;;9.83;5.97;;;;;;;;;;5093004;28;20305;-33
2023/01/27 06:59:11;;;;;;;9.57;5.97;;;;;;;;;;5091199;28;20207;-30
2023/01/27 07:01:38;;;;;;;8.43;5.23;;;;;;;;;;5092112;28;20207;-34
2023/01/27 07:04:05;;;;;;;8.10;5.10;;;;;;;;;;5085489;28;20226;-33
2023/01/27 07:06:33;;;;;;;10.07;5.70;;;;;;;;;;5092151;28;20299;-29
2023/01/27 07:09:00;;;;;;;10.27;6.60;;;;;;;;;;5091167;28;20408;-30
2023/01/27 07:11:29;;;;;;;11.50;6.17;;;;;;;;;;5091514;28;20204;-27
2023/01/27 07:13:56;;;;;;;11.30;5.27;;;;;;;;;;5088901;28;20733;-31
2023/01/27 07:16:23;;;;;;;9.43;5.50;;;;;;;;;;5090496;28;20276;-30
2023/01/27 07:18:50;;;;;;;10.23;6.20;;;;;;;;;;5091314;28;20200;-29
2023/01/27 07:21:17;;;;;;;7.80;5.67;;;;;;;;;;5089772;28;20211;-28
2023/01/27 07:23:44;;;;;;;9.73;5.90;;;;;;;;;;5085541;28;20224;-30
2023/01/27 07:26:12;;;;;;;9.73;5.70;;;;;;;;;;5090219;28;20239;-30
2023/01/27 07:28:40;;;;;;;8.77;5.50;;;;;;;;;;5089955;28;20236;-32
2023/01/27 07:31:07;;;;;;;10.40;6.20;;;;;;;;;;5089770;28;20285;-31
2023/01/27 07:33:36;;;;;;;11.63;6.27;;;;;;;;;;5090909;28;20228;-32
2023/01/27 07:36:03;;;;;;;10.13;5.30;;;;;;;;;;5091158;28;20231;-29
2023/01/27 07:38:30;;;;;;;10.90;6.53;;;;;;;;;;5090016;28;20208;-34
2023/01/27 07:46:03;;;;;;;9.93;6.20;;;;;;;;;;5031866;28;20302;-28
2023/01/27 07:48:30;;;;;;;13.53;7.07;;;;;;;;;;5033616;28;20680;-29
2023/01/27 07:50:58;;;;;;;10.67;6.40;;;;;;;;;;5033477;28;20222;-24
2023/01/27 08:06:18;;;;;;;9.90;5.87;;;;;;;;;;5075597;28;20220;-30
2023/01/27 08:08:45;;;;;;;8.93;5.13;;;;;;;;;;5076497;28;20212;-29
2023/01/27 08:11:13;;;;;;;9.70;5.93;;;;;;;;;;5076249;28;20271;-28
2023/01/27 08:26:33;;;;;;;4.77;3.70;;;;;;;;;;5054599;28;20356;-30
2023/01/27 08:29:00;;;;;;;6.73;4.40;;;;;;;;;;5055544;28;20206;-27
2023/01/27 08:31:27;;;;;;;8.53;4.97;;;;;;;;;;5055792;28;20208;-29
2023/01/27 08:46:47;;;;;;;8.20;4.83;;;;;;;;;;5054335;28;20297;-29
2023/01/27 08:49:14;;;;;;;11.83;7.00;;;;;;;;;;5055852;28;20209;-31
2023/01/27 08:51:41;;;;;;;11.40;6.43;;;;;;;;;;5055867;28;20206;-27
2023/01/27 09:07:01;;;;;;;13.13;10.50;;;;;;;;;;5053865;28;20210;-25
2023/01/27 09:09:29;;;;;;;15.17;9.90;;;;;;;;;;5056065;28;20226;-27
2023/01/27 09:11:56;;;;;;;19.07;10.80;;;;;;;;;;5055066;28;20213;-28
2023/01/27 09:24:51;;;;;;;15.37;8.40;;;;;;;;;;1702208;22;20386;-22
2023/01/27 09:27:18;;;;;;;18.97;10.03;;;;;;;;;;5034247;28;20272;-26
2023/01/27 09:29:45;;;;;;;16.37;8.63;;;;;;;;;;5035491;28;20232;-24
2023/01/27 09:32:12;;;;;;;19.20;9.73;;;;;;;;;;5035052;28;20202;-29
2023/01/27 09:47:43;;;;;;;15.70;8.30;;;;;;;;;;5033173;28;20673;-30
2023/01/27 09:50:20;;;;;;;13.83;7.70;;;;;;;;;;5034686;28;20217;-29
2023/01/27 10:05:48;;;;;;;17.80;11.57;;;;;;;;;;5033235;28;20218;-31
2023/01/27 10:08:27;;;;;;;13.07;8.37;;;;;;;;;;5034172;28;20179;-28
2023/01/27 10:10:59;;;;;;;18.77;8.80;;;;;;;;;;5034457;28;20272;-30
2023/01/27 10:18:38;;;;;;;12.53;7.33;;;;;;;;;;2040119;23;21807;31
2023/01/27 10:26:15;;;;;;;10.87;7.07;;;;;;;;;;5052896;28;20220;-28
2023/01/27 10:28:50;;;;;;;13.20;8.07;;;;;;;;;;5054934;28;20197;-27
2023/01/27 10:31:20;;;;;;;14.70;7.77;;;;;;;;;;5054158;28;20205;-25
2023/01/27 10:44:17;;;;;;;9.80;5.67;;;;;;;;;;5549373;23;20233;-29
2023/01/27 10:46:46;;;;;;;8.20;4.60;;;;;;;;;;5074988;28;20192;-31
2023/01/27 10:49:21;;;;;;;13.27;6.37;;;;;;;;;;5073920;28;20208;-28
2023/01/27 10:51:51;;;;;;;8.63;5.30;;;;;;;;;;5074114;28;20220;-31
2023/01/27 11:07:15;;;;;;;10.67;4.60;;;;;;;;;;5032403;28;20297;-28
2023/01/27 11:09:46;;;;;;;9.97;5.13;;;;;;;;;;5033681;28;20605;-29
2023/01/27 11:12:14;;;;;;;17.37;9.37;;;;;;;;;;5034038;28;20207;-26
2023/01/27 11:30:40;;;;;;;6.03;4.13;;;;;;;;;;5072989;28;20228;-29
2023/01/27 11:49:05;;;;;;;8.37;4.40;;;;;;;;;;5037670;28;20206;-30
2023/01/27 11:51:35;;;;;;;7.80;3.87;;;;;;;;;;5037204;28;20253;-29
2023/01/27 12:06:57;;;;;;;8.17;4.83;;;;;;;;;;5035711;28;20302;-27
2023/01/27 12:09:31;;;;;;;8.47;4.47;;;;;;;;;;5036590;28;20214;-33
2023/01/27 12:12:10;;;;;;;8.90;4.83;;;;;;;;;;5036788;28;20226;-29
2023/01/27 12:27:37;;;;;;;2.17;1.43;;;;;;;;;;5075239;28;20225;-27
2023/01/27 12:30:05;;;;;;;8.77;4.80;;;;;;;;;;5076137;28;20219;-31
2023/01/27 12:48:30;;;;;;;7.60;4.23;;;;;;;;;;5035780;28;20205;-25
2023/01/27 12:51:05;;;;;;;7.70;4.53;;;;;;;;;;5035994;28;20310;-28
2023/01/27 13:06:30;;;;;;;8.83;4.70;;;;;;;;;;5074439;28;20205;-30
2023/01/27 13:08:58;;;;;;;7.90;4.80;;;;;;;;;;5076130;28;20217;-29
2023/01/27 13:11:31;;;;;;;6.47;3.90;;;;;;;;;;5075741;28;20240;-31
2023/01/27 13:26:52;;;;;;;8.57;5.00;;;;;;;;;;5034071;28;20215;-28
2023/01/27 13:29:21;;;;;;;7.87;4.33;;;;;;;;;;5035149;28;20207;-31
2023/01/27 13:31:51;;;;;;;7.13;4.73;;;;;;;;;;5035936;28;20225;-26
2023/01/27 13:47:15;;;;;;;10.13;5.77;;;;;;;;;;5073580;28;20213;-29
2023/01/27 13:49:45;;;;;;;9.63;5.23;;;;;;;;;;5075079;28;20189;-30
2023/01/27 13:52:12;;;;;;;9.37;4.97;;;;;;;;;;5075116;28;20565;-27
2023/01/27 14:10:37;;;;;;;7.13;4.50;;;;;;;;;;5033415;28;20241;-25
2023/01/27 14:23:47;;;;;;;11.60;6.57;;;;;;;;;;3900025;22;20495;-31
2023/01/27 14:26:20;;;;;;;13.07;6.93;;;;;;;;;;5072366;28;20215;-28
2023/01/27 14:28:55;;;;;;;12.80;7.07;;;;;;;;;;5073660;28;20186;-29
2023/01/27 14:31:24;;;;;;;12.73;5.30;;;;;;;;;;5073565;28;20212;-29
2023/01/27 14:46:55;;;;;;;21.60;11.37;;;;;;;;;;5031635;28;20608;-32
2023/01/27 14:49:26;;;;;;;33.17;16.00;;;;;;;;;;5033347;28;20212;-30
2023/01/27 14:51:55;;;;;;;22.50;10.47;;;;;;;;;;5033333;28;20211;-32
2023/01/27 14:57:08;;;;;;;17.10;8.97;;;;;;;;;;5517462;23;20309;-32
2023/01/27 14:59:40;;;;;;;21.77;9.70;;;;;;;;;;5045917;28;20190;-28
2023/01/27 15:02:18;;;;;;;20.10;10.37;;;;;;;;;;5048156;28;20577;-27
2023/01/27 15:04:48;;;;;;;16.70;8.63;;;;;;;;;;5046890;28;20236;-28
2023/01/27 15:07:18;;;;;;;21.70;10.70;;;;;;;;;;5046712;28;20194;-32
2023/01/27 15:09:52;;;;;;;19.90;9.00;;;;;;;;;;5047970;28;20218;-28
2023/01/27 15:12:27;;;;;;;21.00;10.53;;;;;;;;;;5051442;28;20283;-30
2023/01/27 15:15:10;;;;;;;17.43;9.47;;;;;;;;;;5049951;28;20300;-29
2023/01/27 15:17:44;;;;;;;14.93;8.87;;;;;;;;;;5051412;28;20196;-28
2023/01/27 15:20:26;;;;;;;19.20;9.47;;;;;;;;;;5051393;28;20190;-28
2023/01/27 15:23:02;;;;;;;18.13;9.40;;;;;;;;;;5046892;28;20386;-33
2023/01/27 15:25:32;;;;;;;19.27;8.90;;;;;;;;;;5052677;28;20186;-31
2023/01/27 15:27:59;;;;;;;16.67;8.60;;;;;;;;;;5055228;28;20212;-29
2023/01/27 15:30:27;;;;;;;16.53;8.20;;;;;;;;;;5052579;28;20206;-29
2023/01/27 15:32:56;;;;;;;22.90;11.37;;;;;;;;;;5055821;28;20226;-31
2023/01/27 15:35:33;;;;;;;18.33;9.63;;;;;;;;;;5054621;28;20228;-28
2023/01/27 15:38:01;;;;;;;18.90;9.20;;;;;;;;;;5054139;28;20276;-30
2023/01/27 15:40:28;;;;;;;15.73;8.67;;;;;;;;;;5053883;28;20205;-25
2023/01/27 15:43:03;;;;;;;17.67;9.43;;;;;;;;;;5054371;28;20708;-25
2023/01/27 15:45:32;;;;;;;20.33;9.83;;;;;;;;;;5053411;28;20271;-28
2023/01/27 15:48:02;;;;;;;15.63;9.03;;;;;;;;;;5054137;28;20214;-26
2023/01/27 15:50:31;;;;;;;16.77;8.87;;;;;;;;;;5054419;28;20201;-31
2023/01/27 15:53:02;;;;;;;12.27;5.83;;;;;;;;;;5054589;28;20234;-30
2023/01/27 15:55:30;;;;;;;15.77;8.10;;;;;;;;;;5053166;28;20293;-28
2023/01/27 15:58:06;;;;;;;11.23;6.47;;;;;;;;;;5054418;28;20220;-30
2023/01/27 16:00:36;;;;;;;13.97;8.27;;;;;;;;;;5052615;28;20213;-32
2023/01/27 16:03:06;;;;;;;12.60;7.70;;;;;;;;;;5054042;28;20533;-30
2023/01/27 16:05:36;;;;;;;12.20;6.77;;;;;;;;;;5054471;28;20210;-32
2023/01/27 16:08:05;;;;;;;13.57;7.40;;;;;;;;;;5053018;28;20217;-28
2023/01/27 16:10:34;;;;;;;13.33;7.40;;;;;;;;;;5053467;28;20221;-28
2023/01/27 16:13:15;;;;;;;12.93;6.73;;;;;;;;;;5053925;28;20607;-31
2023/01/27 16:15:43;;;;;;;15.60;8.60;;;;;;;;;;5052787;28;20198;-29
2023/01/27 16:18:25;;;;;;;14.30;7.70;;;;;;;;;;5052639;28;20220;-28
2023/01/27 16:20:54;;;;;;;14.20;7.70;;;;;;;;;;5038184;28;20186;-27
2023/01/27 16:23:30;;;;;;;11.90;6.60;;;;;;;;;;5043740;28;20773;-28
2023/01/27 16:26:03;;;;;;;12.10;7.60;;;;;;;;;;5052553;28;20196;-30
2023/01/27 16:28:31;;;;;;;10.67;6.97;;;;;;;;;;5052221;28;20186;-29
2023/01/27 16:31:02;;;;;;;21.07;10.47;;;;;;;;;;5049172;28;20222;-29
2023/01/27 16:33:32;;;;;;;13.53;7.13;;;;;;;;;;5052061;28;20232;-30
2023/01/27 16:36:05;;;;;;;13.63;7.60;;;;;;;;;;5051165;28;20196;-30
2023/01/27 16:38:33;;;;;;;13.13;7.60;;;;;;;;;;5049486;28;20191;-31
2023/01/27 16:41:02;;;;;;;14.63;8.00;;;;;;;;;;5050013;28;20212;-27
2023/01/27 16:43:32;;;;;;;10.67;7.03;;;;;;;;;;5050583;28;20309;-30
2023/01/27 16:46:00;;;;;;;10.63;6.73;;;;;;;;;;5048465;28;20209;-28
2023/01/27 16:48:29;;;;;;;14.87;8.20;;;;;;;;;;5049476;28;20664;-29
2023/01/27 16:51:08;;;;;;;12.57;6.97;;;;;;;;;;5049714;28;20213;-29
2023/01/27 16:53:35;;;;;;;9.63;6.10;;;;;;;;;;5048193;28;20225;-27
2023/01/27 16:56:04;;;;;;;13.13;6.87;;;;;;;;;;5050371;28;20222;-29
2023/01/27 16:58:31;;;;;;;10.23;6.83;;;;;;;;;;5051218;28;20216;-32
2023/01/27 17:01:00;;;;;;;11.67;6.57;;;;;;;;;;5050294;28;20216;-29
2023/01/27 17:03:31;;;;;;;12.53;6.27;;;;;;;;;;5049831;28;20236;-29
2023/01/27 17:06:01;;;;;;;12.03;7.40;;;;;;;;;;5050154;28;20244;-26
2023/01/27 17:08:34;;;;;;;12.13;6.33;;;;;;;;;;5047498;28;20210;-26
2023/01/27 17:11:08;;;;;;;12.77;6.90;;;;;;;;;;5048853;28;20714;-28
2023/01/27 17:13:36;;;;;;;9.43;6.10;;;;;;;;;;5049241;28;20230;-24
2023/01/27 17:16:06;;;;;;;13.93;7.70;;;;;;;;;;5048521;28;20228;-30
2023/01/27 17:18:35;;;;;;;12.57;6.83;;;;;;;;;;5049213;28;20214;-30
2023/01/27 17:21:03;;;;;;;11.70;7.70;;;;;;;;;;5049260;28;20210;-27
2023/01/27 17:23:34;;;;;;;12.30;7.50;;;;;;;;;;5047843;28;20226;-29
2023/01/27 17:26:04;;;;;;;10.93;6.93;;;;;;;;;;5049219;28;20288;-28
2023/01/27 17:31:38;;;;;;;12.77;8.70;;;;;;;;;;5048696;28;20212;-31
2023/01/27 17:34:05;;;;;;;12.07;7.17;;;;;;;;;;5049133;28;20360;-27
2023/01/27 17:36:32;;;;;;;8.83;6.77;;;;;;;;;;5051193;28;20263;-29
2023/01/27 17:39:00;;;;;;;11.83;5.77;;;;;;;;;;5050348;28;20206;-27
2023/01/27 17:41:30;;;;;;;9.30;6.83;;;;;;;;;;5048362;28;20202;-26
2023/01/27 17:44:00;;;;;;;11.77;7.40;;;;;;;;;;5047890;28;20712;-28
2023/01/27 17:46:28;;;;;;;14.07;8.93;;;;;;;;;;5048172;28;20194;-31
2023/01/27 17:48:56;;;;;;;15.37;8.33;;;;;;;;;;5048130;28;20471;-28
2023/01/27 17:51:25;;;;;;;13.47;8.30;;;;;;;;;;5049361;28;20226;-30
2023/01/27 17:53:52;;;;;;;16.30;8.93;;;;;;;;;;5047746;28;20232;-29
2023/01/27 17:56:22;;;;;;;15.73;8.23;;;;;;;;;;5048893;28;20213;-30
2023/01/27 17:58:52;;;;;;;12.00;7.80;;;;;;;;;;5048653;28;20221;-26
2023/01/27 18:01:19;;;;;;;13.43;7.90;;;;;;;;;;5047497;28;20570;-29
2023/01/27 18:03:48;;;;;;;10.43;6.77;;;;;;;;;;5047932;28;20226;-28
2023/01/27 18:06:15;;;;;;;8.97;6.20;;;;;;;;;;5047967;28;20212;-26
2023/01/27 18:08:50;;;;;;;10.87;6.97;;;;;;;;;;5047089;28;20204;-26
2023/01/27 18:11:24;;;;;;;9.97;6.77;;;;;;;;;;5048446;28;20197;-31
2023/01/27 18:13:52;;;;;;;14.13;7.97;;;;;;;;;;5048167;28;20625;-29
2023/01/27 18:16:20;;;;;;;9.57;6.87;;;;;;;;;;5046695;28;20315;-28
2023/01/27 18:18:48;;;;;;;10.93;6.67;;;;;;;;;;5048069;28;20288;-29
2023/01/27 18:21:19;;;;;;;10.37;6.33;;;;;;;;;;5049000;28;20230;-28
2023/01/27 18:23:47;;;;;;;10.27;6.57;;;;;;;;;;5047402;28;20643;-29
2023/01/27 18:26:17;;;;;;;12.60;7.53;;;;;;;;;;5048447;28;20210;-28
2023/01/27 18:28:46;;;;;;;12.87;8.13;;;;;;;;;;5048232;28;20202;-27
2023/01/27 18:31:15;;;;;;;11.53;6.33;;;;;;;;;;5046771;28;20684;-26
2023/01/27 18:33:42;;;;;;;11.53;7.00;;;;;;;;;;5047487;28;20229;-30
2023/01/27 18:36:19;;;;;;;10.33;6.67;;;;;;;;;;5048086;28;20537;-29
2023/01/27 18:38:46;;;;;;;13.27;7.80;;;;;;;;;;5045968;28;20220;-29
2023/01/27 18:41:19;;;;;;;15.13;8.90;;;;;;;;;;5048251;28;20202;-28
2023/01/27 18:43:49;;;;;;;16.57;8.87;;;;;;;;;;5047989;28;20284;-29
2023/01/27 18:46:16;;;;;;;11.90;7.33;;;;;;;;;;5045225;28;20216;-27
2023/01/27 18:48:43;;;;;;;14.57;8.63;;;;;;;;;;5047200;28;20214;-27
2023/01/27 18:51:13;;;;;;;15.17;8.70;;;;;;;;;;5048518;28;20657;-26
2023/01/27 18:53:40;;;;;;;12.83;7.43;;;;;;;;;;5046010;28;20239;-31
2023/01/27 18:56:07;;;;;;;12.87;8.20;;;;;;;;;;5047390;28;20214;-28
2023/01/27 18:58:35;;;;;;;13.60;7.07;;;;;;;;;;5048372;28;20263;-29
2023/01/27 19:01:04;;;;;;;11.63;7.30;;;;;;;;;;5046134;28;20234;-30
2023/01/27 19:03:33;;;;;;;10.13;7.07;;;;;;;;;;5046653;28;20222;-28
2023/01/27 19:06:00;;;;;;;9.87;6.90;;;;;;;;;;5047384;28;20213;-24
2023/01/27 19:08:28;;;;;;;11.57;7.47;;;;;;;;;;5046459;28;20212;-30
2023/01/27 19:10:55;;;;;;;11.30;7.07;;;;;;;;;;5047129;28;20206;-27
2023/01/27 19:13:22;;;;;;;11.30;7.13;;;;;;;;;;5047400;28;20241;-28
2023/01/27 19:15:50;;;;;;;11.50;6.97;;;;;;;;;;5046043;28;20621;-26
2023/01/27 19:18:22;;;;;;;12.00;7.17;;;;;;;;;;5047208;28;20210;-28
2023/01/27 19:20:49;;;;;;;11.23;7.60;;;;;;;;;;5047384;28;20194;-29
2023/01/27 19:23:18;;;;;;;11.43;7.17;;;;;;;;;;5047452;28;20233;-31
2023/01/27 19:25:46;;;;;;;14.23;7.67;;;;;;;;;;5045950;28;20205;-28
2023/01/27 19:28:16;;;;;;;14.07;7.87;;;;;;;;;;5047273;28;20301;-29
2023/01/27 19:30:44;;;;;;;13.83;7.37;;;;;;;;;;5045807;28;20216;-28
2023/01/27 19:33:17;;;;;;;12.67;7.87;;;;;;;;;;5047344;28;20240;-29
2023/01/27 19:35:46;;;;;;;11.37;6.73;;;;;;;;;;5047187;28;20198;-31
2023/01/27 19:38:13;;;;;;;12.50;7.67;;;;;;;;;;5046359;28;20214;-28
2023/01/27 19:40:40;;;;;;;12.40;6.87;;;;;;;;;;5047383;28;20206;-28
2023/01/27 19:43:10;;;;;;;14.80;8.07;;;;;;;;;;5047683;28;20230;-31
2023/01/27 19:45:37;;;;;;;8.53;6.33;;;;;;;;;;5045640;28;20257;-28
2023/01/27 19:48:05;;;;;;;12.13;7.20;;;;;;;;;;5047788;28;20210;-26
2023/01/27 19:50:33;;;;;;;12.47;7.40;;;;;;;;;;5047760;28;20206;-30
2023/01/27 19:53:01;;;;;;;14.10;7.93;;;;;;;;;;5046183;28;20252;-28
2023/01/27 19:55:28;;;;;;;13.47;7.57;;;;;;;;;;5047077;28;20260;-28
2023/01/27 19:57:55;;;;;;;11.80;7.90;;;;;;;;;;5051602;28;20217;-27
2023/01/27 20:00:24;;;;;;;13.43;7.30;;;;;;;;;;5049652;28;20390;-29
2023/01/27 20:02:51;;;;;;;8.70;6.23;;;;;;;;;;5050404;28;20222;-30
2023/01/27 20:05:19;;;;;;;11.40;7.00;;;;;;;;;;5051082;28;20216;-29
2023/01/27 20:07:46;;;;;;;11.03;7.13;;;;;;;;;;5049428;28;20205;-30